Time;durP1;ratioP1;P1;durP2;ratioP2;P2;SDS_P1;SDS_P2;PMS_P1;PMS_P2;Temp;Humidity;BMP_temperature;BMP_pressure;BME280_temperature;BME280_humidity;BME280_pressure;Samples;Min_cycle;Max_cycle;Signal;HPM_P1;HPM_P2
2021/03/22 00:02:14;;;;;;;31.30;9.65;;;;;;;;;;5006949;28;20512;-83
2021/03/22 00:04:59;;;;;;;35.05;10.65;;;;;;;;;;5019492;28;20468;-83
2021/03/22 00:07:45;;;;;;;27.92;9.40;;;;;;;;;;5016781;28;20392;-84
2021/03/22 00:10:31;;;;;;;29.13;9.77;;;;;;;;;;4993612;28;20679;-84
2021/03/22 00:13:17;;;;;;;25.30;10.13;;;;;;;;;;5004437;28;20042;-85
2021/03/22 00:16:05;;;;;;;28.30;9.30;;;;;;;;;;5004705;28;20096;-86
2021/03/22 00:18:50;;;;;;;29.95;10.10;;;;;;;;;;5014811;28;20050;-83
2021/03/22 00:21:36;;;;;;;27.30;9.02;;;;;;;;;;5001180;28;20049;-83
2021/03/22 00:24:21;;;;;;;30.17;9.55;;;;;;;;;;5003949;28;20099;-84
2021/03/22 00:27:06;;;;;;;31.83;10.85;;;;;;;;;;5016230;28;20061;-84
2021/03/22 00:29:52;;;;;;;37.13;10.75;;;;;;;;;;5004954;28;20018;-84
2021/03/22 00:32:37;;;;;;;28.13;9.18;;;;;;;;;;5022103;28;20025;-83
2021/03/22 00:35:23;;;;;;;28.13;8.88;;;;;;;;;;5017059;28;20392;-85
2021/03/22 00:38:08;;;;;;;27.02;8.60;;;;;;;;;;4990381;28;20019;-84
2021/03/22 00:40:54;;;;;;;31.23;9.10;;;;;;;;;;4997415;28;20030;-85
2021/03/22 00:43:39;;;;;;;27.88;9.52;;;;;;;;;;5021101;28;20034;-85
2021/03/22 00:46:25;;;;;;;26.38;7.95;;;;;;;;;;5016467;28;20061;-87
2021/03/22 00:49:10;;;;;;;40.08;9.18;;;;;;;;;;5000214;28;20045;-86
2021/03/22 00:51:55;;;;;;;28.60;8.60;;;;;;;;;;5008668;28;20036;-84
2021/03/22 00:54:41;;;;;;;40.03;9.07;;;;;;;;;;5015389;28;20018;-84
2021/03/22 00:57:26;;;;;;;26.75;8.93;;;;;;;;;;5000982;28;20022;-84
2021/03/22 01:00:17;;;;;;;33.13;9.07;;;;;;;;;;4997797;28;20022;-84
2021/03/22 01:03:04;;;;;;;30.55;9.68;;;;;;;;;;5017385;28;20092;-85
2021/03/22 01:05:50;;;;;;;26.70;9.05;;;;;;;;;;5004658;28;20100;-85
2021/03/22 01:08:36;;;;;;;26.45;8.50;;;;;;;;;;5000353;28;20539;-85
2021/03/22 01:11:21;;;;;;;32.78;8.93;;;;;;;;;;4993998;28;20033;-83
2021/03/22 01:14:07;;;;;;;35.80;9.27;;;;;;;;;;5003789;28;20196;-85
2021/03/22 01:16:52;;;;;;;42.58;10.93;;;;;;;;;;4997662;28;20040;-83
2021/03/22 01:19:37;;;;;;;26.00;7.88;;;;;;;;;;5004572;28;20019;-83
2021/03/22 01:22:22;;;;;;;23.88;7.60;;;;;;;;;;4995878;28;20496;-83
2021/03/22 01:25:09;;;;;;;26.63;8.57;;;;;;;;;;5005216;28;20113;-83
2021/03/22 01:27:54;;;;;;;40.38;8.82;;;;;;;;;;5004420;28;20048;-83
2021/03/22 01:30:49;;;;;;;32.55;8.02;;;;;;;;;;5015121;28;20022;-83
2021/03/22 01:33:38;;;;;;;31.35;8.90;;;;;;;;;;5002059;28;20051;-84
2021/03/22 01:36:25;;;;;;;30.17;8.15;;;;;;;;;;5002667;28;20029;-83
2021/03/22 01:39:12;;;;;;;32.15;9.52;;;;;;;;;;5018209;28;20029;-83
2021/03/22 01:42:16;;;;;;;32.15;7.75;;;;;;;;;;5012006;28;20022;-83
2021/03/22 01:45:05;;;;;;;25.55;7.53;;;;;;;;;;5015619;28;20037;-85
2021/03/22 01:47:51;;;;;;;32.03;7.05;;;;;;;;;;5000653;28;20125;-82
2021/03/22 01:50:36;;;;;;;23.90;7.28;;;;;;;;;;4999863;28;20022;-82
2021/03/22 01:53:21;;;;;;;34.33;8.38;;;;;;;;;;5001562;28;20037;-81
2021/03/22 01:56:33;;;;;;;31.52;7.63;;;;;;;;;;5006432;28;20021;-83
2021/03/22 01:59:25;;;;;;;29.05;7.40;;;;;;;;;;5003697;28;20030;-85
2021/03/22 02:02:10;;;;;;;28.70;6.93;;;;;;;;;;4999741;28;20053;-84
2021/03/22 02:04:56;;;;;;;33.13;8.60;;;;;;;;;;5002193;28;20026;-85
2021/03/22 02:07:42;;;;;;;25.38;7.65;;;;;;;;;;5009661;28;20037;-84
2021/03/22 02:10:27;;;;;;;30.42;8.02;;;;;;;;;;5006780;28;20033;-84
2021/03/22 02:13:15;;;;;;;26.30;7.75;;;;;;;;;;5000970;28;20022;-82
2021/03/22 02:16:11;;;;;;;32.00;7.25;;;;;;;;;;5028850;28;20025;-85
2021/03/22 02:19:15;;;;;;;20.60;7.20;;;;;;;;;;5018876;28;20026;-85
2021/03/22 02:22:06;;;;;;;29.40;8.35;;;;;;;;;;5007026;28;20062;-86
2021/03/22 02:25:02;;;;;;;25.02;7.65;;;;;;;;;;5006569;28;20048;-85
2021/03/22 02:27:56;;;;;;;28.73;7.30;;;;;;;;;;5013643;28;20026;-86
2021/03/22 02:30:47;;;;;;;28.38;7.40;;;;;;;;;;5007052;28;20080;-84
2021/03/22 02:33:45;;;;;;;32.08;7.93;;;;;;;;;;5001166;28;20034;-84
2021/03/22 02:36:36;;;;;;;29.25;7.22;;;;;;;;;;5006375;28;20377;-86
2021/03/22 02:39:21;;;;;;;31.75;7.63;;;;;;;;;;5004104;28;20491;-86
2021/03/22 02:42:08;;;;;;;31.27;6.95;;;;;;;;;;5005803;28;20041;-86
2021/03/22 02:44:53;;;;;;;25.77;7.03;;;;;;;;;;4989279;28;20028;-85
2021/03/22 02:47:39;;;;;;;26.38;6.55;;;;;;;;;;5017718;28;20021;-84
2021/03/22 02:50:26;;;;;;;34.38;7.82;;;;;;;;;;4990692;28;20041;-84
2021/03/22 02:53:30;;;;;;;28.88;7.95;;;;;;;;;;5003931;28;20022;-85
2021/03/22 02:56:21;;;;;;;33.22;7.38;;;;;;;;;;5002875;28;20438;-84
2021/03/22 02:59:12;;;;;;;23.23;6.95;;;;;;;;;;5023628;28;20021;-86
2021/03/22 03:02:02;;;;;;;25.45;7.05;;;;;;;;;;5005048;28;20079;-85
2021/03/22 03:04:47;;;;;;;23.58;5.63;;;;;;;;;;5013993;28;20053;-85
2021/03/22 03:07:33;;;;;;;23.20;6.57;;;;;;;;;;5023363;28;20034;-85
2021/03/22 03:10:18;;;;;;;27.67;6.50;;;;;;;;;;5020821;28;20044;-84
2021/03/22 03:13:04;;;;;;;32.92;7.32;;;;;;;;;;5024277;28;20030;-86
2021/03/22 03:15:49;;;;;;;28.73;5.97;;;;;;;;;;5007841;28;20376;-85
2021/03/22 03:18:34;;;;;;;24.33;5.30;;;;;;;;;;5019577;28;20030;-85
2021/03/22 03:21:20;;;;;;;23.73;5.93;;;;;;;;;;4999381;28;20057;-85
2021/03/22 03:24:06;;;;;;;30.52;7.70;;;;;;;;;;5014288;28;20022;-85
2021/03/22 03:26:51;;;;;;;33.10;6.68;;;;;;;;;;5001645;28;20018;-85
2021/03/22 03:29:37;;;;;;;30.90;5.97;;;;;;;;;;5024124;28;20021;-87
2021/03/22 03:32:22;;;;;;;21.33;6.38;;;;;;;;;;5018833;28;20026;-90
2021/03/22 03:35:09;;;;;;;31.75;6.88;;;;;;;;;;5010886;28;20022;-86
2021/03/22 03:37:54;;;;;;;21.98;5.60;;;;;;;;;;5004392;28;20022;-86
2021/03/22 03:40:42;;;;;;;31.50;7.45;;;;;;;;;;5007395;28;20030;-87
2021/03/22 03:43:27;;;;;;;22.50;5.10;;;;;;;;;;5009995;28;20033;-86
2021/03/22 03:46:12;;;;;;;29.73;5.63;;;;;;;;;;5007745;28;20018;-86
2021/03/22 03:48:57;;;;;;;24.53;7.17;;;;;;;;;;5009166;28;20041;-86
2021/03/22 03:51:42;;;;;;;26.00;5.43;;;;;;;;;;5007233;28;20029;-84
2021/03/22 03:54:27;;;;;;;31.02;5.93;;;;;;;;;;4996702;28;20489;-82
2021/03/22 03:57:13;;;;;;;23.30;6.95;;;;;;;;;;5015806;28;20436;-83
2021/03/22 03:59:58;;;;;;;30.10;6.47;;;;;;;;;;5023584;28;20052;-81
2021/03/22 04:02:43;;;;;;;25.23;7.43;;;;;;;;;;4992039;28;20109;-87
2021/03/22 04:05:28;;;;;;;24.27;6.28;;;;;;;;;;5010390;28;20091;-87
2021/03/22 04:08:14;;;;;;;25.30;6.30;;;;;;;;;;5009392;28;20117;-87
2021/03/22 04:11:00;;;;;;;30.45;6.97;;;;;;;;;;4996257;28;20026;-89
2021/03/22 04:13:45;;;;;;;34.08;6.97;;;;;;;;;;5024781;28;20057;-87
2021/03/22 04:16:31;;;;;;;31.30;6.65;;;;;;;;;;5011943;28;20705;-88
2021/03/22 04:19:17;;;;;;;34.28;7.45;;;;;;;;;;5012522;28;20022;-88
2021/03/22 04:22:02;;;;;;;27.73;6.38;;;;;;;;;;5005628;28;20026;-87
2021/03/22 04:24:48;;;;;;;21.38;5.90;;;;;;;;;;5024247;28;20029;-86
2021/03/22 04:27:33;;;;;;;30.73;6.82;;;;;;;;;;5022522;28;20030;-89
2021/03/22 04:30:19;;;;;;;37.22;7.85;;;;;;;;;;5013431;28;20026;-89
2021/03/22 04:33:04;;;;;;;33.92;6.20;;;;;;;;;;5017518;28;20033;-89
2021/03/22 04:35:50;;;;;;;29.10;7.70;;;;;;;;;;5024321;28;20033;-88
2021/03/22 04:38:35;;;;;;;23.50;5.57;;;;;;;;;;5010760;28;20018;-88
2021/03/22 04:41:21;;;;;;;34.92;8.35;;;;;;;;;;4993483;28;20034;-89
2021/03/22 04:44:07;;;;;;;29.88;6.50;;;;;;;;;;5003953;28;20021;-88
2021/03/22 04:46:52;;;;;;;31.00;7.25;;;;;;;;;;5008673;28;20118;-90
2021/03/22 04:49:37;;;;;;;25.65;7.10;;;;;;;;;;4991181;28;20030;-90
2021/03/22 04:52:22;;;;;;;23.75;5.78;;;;;;;;;;5012674;28;20026;-89
2021/03/22 04:55:08;;;;;;;23.27;4.88;;;;;;;;;;5022370;28;20487;-88
2021/03/22 04:57:54;;;;;;;28.92;6.45;;;;;;;;;;5023775;28;20084;-90
2021/03/22 05:00:41;;;;;;;29.33;5.80;;;;;;;;;;5008433;28;20028;-89
2021/03/22 05:03:26;;;;;;;28.00;6.18;;;;;;;;;;5012379;28;20034;-90
2021/03/22 05:06:11;;;;;;;25.70;5.45;;;;;;;;;;5002097;28;20081;-90
2021/03/22 05:08:57;;;;;;;23.02;6.50;;;;;;;;;;4996070;28;20229;-89
2021/03/22 05:11:42;;;;;;;28.38;6.18;;;;;;;;;;5012477;28;20076;-90
2021/03/22 05:14:27;;;;;;;16.67;5.60;;;;;;;;;;5020920;28;20054;-88
2021/03/22 05:17:12;;;;;;;29.83;5.82;;;;;;;;;;5016486;28;20383;-88
2021/03/22 05:19:58;;;;;;;31.13;6.70;;;;;;;;;;5021462;28;20081;-88
2021/03/22 05:22:43;;;;;;;28.88;7.22;;;;;;;;;;4999265;28;20029;-89
2021/03/22 05:25:28;;;;;;;26.40;5.50;;;;;;;;;;5026296;28;20234;-87
2021/03/22 05:28:14;;;;;;;20.60;4.65;;;;;;;;;;5012279;28;20032;-87
2021/03/22 05:30:59;;;;;;;20.90;5.85;;;;;;;;;;5014518;28;20030;-87
2021/03/22 05:33:44;;;;;;;17.77;4.97;;;;;;;;;;4998354;28;20660;-88
2021/03/22 05:36:30;;;;;;;22.33;5.22;;;;;;;;;;5022268;28;20110;-87
2021/03/22 05:39:15;;;;;;;20.02;5.47;;;;;;;;;;5023667;28;20050;-87
2021/03/22 05:42:12;;;;;;;26.38;5.57;;;;;;;;;;5026944;28;20021;-90
2021/03/22 05:45:01;;;;;;;22.92;6.10;;;;;;;;;;5038882;28;20029;-88
2021/03/22 05:48:07;;;;;;;20.83;5.63;;;;;;;;;;5031519;28;20018;-90
2021/03/22 05:50:58;;;;;;;19.80;4.38;;;;;;;;;;5009767;28;20056;-89
2021/03/22 05:53:46;;;;;;;23.88;6.78;;;;;;;;;;4996356;28;20098;-89
2021/03/22 05:56:31;;;;;;;26.83;6.63;;;;;;;;;;5034015;28;20026;-85
2021/03/22 05:59:20;;;;;;;25.90;5.80;;;;;;;;;;5020831;28;20036;-90
2021/03/22 06:02:16;;;;;;;22.30;5.35;;;;;;;;;;5011584;28;20726;-84
2021/03/22 06:05:08;;;;;;;21.20;4.97;;;;;;;;;;5022248;28;20057;-88
2021/03/22 06:07:55;;;;;;;31.02;4.97;;;;;;;;;;5021558;28;20461;-86
2021/03/22 06:10:44;;;;;;;23.95;6.38;;;;;;;;;;5012938;28;20026;-88
2021/03/22 06:13:33;;;;;;;25.88;6.40;;;;;;;;;;5020281;28;20046;-87
2021/03/22 06:16:24;;;;;;;23.70;5.45;;;;;;;;;;5010739;28;20018;-84
2021/03/22 06:19:11;;;;;;;23.70;6.13;;;;;;;;;;5004477;28;20501;-84
2021/03/22 06:21:56;;;;;;;27.02;6.95;;;;;;;;;;4996082;28;20104;-84
2021/03/22 06:24:41;;;;;;;26.33;6.47;;;;;;;;;;5010830;28;20066;-85
2021/03/22 06:27:27;;;;;;;26.95;5.78;;;;;;;;;;5020386;28;20508;-85
2021/03/22 06:30:17;;;;;;;25.98;6.28;;;;;;;;;;4991331;28;20025;-86
2021/03/22 06:33:02;;;;;;;23.60;5.63;;;;;;;;;;5007553;28;20018;-86
2021/03/22 06:35:47;;;;;;;25.48;5.32;;;;;;;;;;5009251;28;20034;-85
2021/03/22 06:38:33;;;;;;;27.23;6.50;;;;;;;;;;5009607;28;20131;-85
2021/03/22 06:41:27;;;;;;;20.90;5.90;;;;;;;;;;5023895;28;20030;-86
2021/03/22 06:44:36;;;;;;;28.23;7.47;;;;;;;;;;5024919;28;20025;-87
2021/03/22 06:47:30;;;;;;;25.10;6.00;;;;;;;;;;5004550;28;20350;-88
2021/03/22 06:50:29;;;;;;;28.35;7.90;;;;;;;;;;5019033;28;20084;-87
2021/03/22 06:53:34;;;;;;;26.90;5.97;;;;;;;;;;5009896;28;20050;-86
2021/03/22 06:56:37;;;;;;;25.80;7.68;;;;;;;;;;5007193;28;20030;-87
2021/03/22 06:59:23;;;;;;;24.20;6.05;;;;;;;;;;5020504;28;20033;-88
2021/03/22 07:02:18;;;;;;;22.38;6.28;;;;;;;;;;5006718;28;20026;-88
2021/03/22 07:05:16;;;;;;;28.10;5.95;;;;;;;;;;5003371;28;20034;-88
2021/03/22 07:08:07;;;;;;;22.45;4.28;;;;;;;;;;5021687;28;20644;-86
2021/03/22 07:10:53;;;;;;;25.02;6.22;;;;;;;;;;5004624;28;20034;-89
2021/03/22 07:13:49;;;;;;;60.38;20.33;;;;;;;;;;5009080;28;20044;-89
2021/03/22 07:17:03;;;;;;;41.90;15.40;;;;;;;;;;5022340;28;20034;-93
2021/03/22 07:20:20;;;;;;;22.83;6.85;;;;;;;;;;4951240;28;20039;-91
2021/03/22 07:26:56;;;;;;;25.20;6.85;;;;;;;;;;4958132;28;20038;-89
2021/03/22 07:30:07;;;;;;;;;;;;;;;;;;;;;
2021/03/22 07:45:27;;;;;;;19.63;5.45;;;;;;;;;;5096946;23;20058;-87
2021/03/22 07:48:24;;;;;;;29.65;7.18;;;;;;;;;;4906386;29;20471;-87
2021/03/22 07:51:36;;;;;;;28.67;5.88;;;;;;;;;;4911487;29;20024;-89
2021/03/22 07:58:42;;;;;;;;;;;;;;;;;;;;;
2021/03/22 08:05:12;;;;;;;21.17;4.65;;;;;;;;;;4980758;28;20019;-88
2021/03/22 08:08:25;;;;;;;21.50;3.92;;;;;;;;;;5010676;28;20022;-89
2021/03/22 08:11:25;;;;;;;21.65;4.90;;;;;;;;;;4986597;28;20025;-89
2021/03/22 08:14:24;;;;;;;21.65;4.40;;;;;;;;;;4992468;28;20044;-90
2021/03/22 08:17:15;;;;;;;20.50;5.30;;;;;;;;;;4981938;28;20026;-90
2021/03/22 08:20:19;;;;;;;21.80;5.38;;;;;;;;;;4984448;28;20397;-87
2021/03/22 08:23:09;;;;;;;19.27;4.40;;;;;;;;;;4980057;28;20095;-87
2021/03/22 08:26:00;;;;;;;14.95;4.13;;;;;;;;;;4997655;28;20034;-90
2021/03/22 08:29:16;;;;;;;23.10;4.20;;;;;;;;;;4991420;28;20504;-87
2021/03/22 08:32:35;;;;;;;17.25;4.25;;;;;;;;;;4978922;28;20481;-86
2021/03/22 08:35:28;;;;;;;16.67;4.40;;;;;;;;;;4980937;28;20113;-87
2021/03/22 08:38:15;;;;;;;19.60;4.60;;;;;;;;;;4960830;28;20085;-87
2021/03/22 08:41:03;;;;;;;20.75;4.97;;;;;;;;;;4979132;28;20057;-86
2021/03/22 08:43:56;;;;;;;25.65;10.50;;;;;;;;;;4959725;28;20038;-87
2021/03/22 08:46:51;;;;;;;13.00;3.90;;;;;;;;;;4976004;28;20031;-84
2021/03/22 08:49:58;;;;;;;22.30;4.38;;;;;;;;;;4988311;28;20041;-90
2021/03/22 08:53:04;;;;;;;17.42;3.67;;;;;;;;;;4977785;28;20473;-88
2021/03/22 08:55:59;;;;;;;21.58;3.92;;;;;;;;;;4992918;28;20473;-87
2021/03/22 08:59:17;;;;;;;19.77;4.28;;;;;;;;;;4975927;28;20031;-88
2021/03/22 09:02:22;;;;;;;18.00;4.38;;;;;;;;;;4976341;28;20069;-87
2021/03/22 09:05:25;;;;;;;18.88;4.63;;;;;;;;;;4973116;28;20172;-87
2021/03/22 09:08:22;;;;;;;15.02;3.90;;;;;;;;;;4964824;28;20030;-87
2021/03/22 09:11:16;;;;;;;19.42;4.57;;;;;;;;;;4962941;28;20026;-86
2021/03/22 09:14:03;;;;;;;15.38;3.97;;;;;;;;;;4992042;28;20021;-88
2021/03/22 09:16:50;;;;;;;17.98;4.10;;;;;;;;;;4997783;28;20042;-87
2021/03/22 09:19:41;;;;;;;16.98;3.63;;;;;;;;;;4996468;28;20122;-89
2021/03/22 09:22:27;;;;;;;16.40;3.60;;;;;;;;;;4981670;28;20022;-88
2021/03/22 09:25:35;;;;;;;14.75;3.33;;;;;;;;;;4993966;28;20022;-93
2021/03/22 09:28:26;;;;;;;14.88;3.63;;;;;;;;;;4970887;28;20031;-89
2021/03/22 09:31:19;;;;;;;16.73;4.10;;;;;;;;;;4974759;28;20092;-90
2021/03/22 09:34:20;;;;;;;18.40;6.15;;;;;;;;;;4993641;28;20409;-91
2021/03/22 09:37:24;;;;;;;14.05;4.03;;;;;;;;;;4963573;28;20057;-90
2021/03/22 09:40:19;;;;;;;9.75;3.17;;;;;;;;;;4976736;28;20033;-89
2021/03/22 09:43:15;;;;;;;13.95;3.50;;;;;;;;;;4974831;28;20066;-91
2021/03/22 09:46:33;;;;;;;;;;;;;;;;;;;;;
2021/03/22 09:49:32;;;;;;;13.23;3.22;;;;;;;;;;4976913;28;20023;-91
2021/03/22 09:52:45;;;;;;;16.20;4.17;;;;;;;;;;4971315;28;20085;-94
2021/03/22 09:55:50;;;;;;;16.25;4.32;;;;;;;;;;4985013;28;20131;-91
2021/03/22 09:58:42;;;;;;;13.98;3.72;;;;;;;;;;4974103;28;20109;-86
2021/03/22 10:01:36;;;;;;;13.32;3.67;;;;;;;;;;4982712;28;20018;-90
2021/03/22 10:04:23;;;;;;;16.75;4.82;;;;;;;;;;4980893;28;20018;-87
2021/03/22 10:07:30;;;;;;;16.98;6.00;;;;;;;;;;4987970;28;20030;-86
2021/03/22 10:10:32;;;;;;;17.33;4.32;;;;;;;;;;4977493;28;20948;-87
2021/03/22 10:13:20;;;;;;;19.95;4.70;;;;;;;;;;4976855;28;20033;-88
2021/03/22 10:16:18;;;;;;;13.05;3.78;;;;;;;;;;4967862;28;20027;-87
2021/03/22 10:19:11;;;;;;;15.63;3.75;;;;;;;;;;4975331;28;20030;-86
2021/03/22 10:21:58;;;;;;;16.55;3.92;;;;;;;;;;4985949;28;20037;-87
2021/03/22 10:24:46;;;;;;;16.75;3.90;;;;;;;;;;4973421;28;20033;-87
2021/03/22 10:27:33;;;;;;;14.18;4.00;;;;;;;;;;4986365;28;20484;-88
2021/03/22 10:30:20;;;;;;;17.88;3.30;;;;;;;;;;4983510;28;20026;-88
2021/03/22 10:33:11;;;;;;;10.98;3.40;;;;;;;;;;4985598;28;20026;-89
2021/03/22 10:35:58;;;;;;;13.25;3.35;;;;;;;;;;4978859;28;20026;-89
2021/03/22 10:38:49;;;;;;;12.75;2.90;;;;;;;;;;4989905;28;20113;-89
2021/03/22 10:41:36;;;;;;;13.02;3.22;;;;;;;;;;4978077;28;20096;-86
2021/03/22 10:44:31;;;;;;;10.77;3.25;;;;;;;;;;4978917;28;20057;-88
2021/03/22 10:47:19;;;;;;;12.57;4.18;;;;;;;;;;4965356;28;20038;-88
2021/03/22 10:50:12;;;;;;;10.05;2.92;;;;;;;;;;4972200;28;20027;-89
2021/03/22 10:53:09;;;;;;;20.90;6.72;;;;;;;;;;4991164;28;20049;-89
2021/03/22 10:55:54;;;;;;;12.63;3.55;;;;;;;;;;4982700;28;20023;-89
2021/03/22 10:58:41;;;;;;;7.15;3.03;;;;;;;;;;4980981;28;20030;-88
2021/03/22 11:01:32;;;;;;;17.17;3.80;;;;;;;;;;4973378;28;20027;-89
2021/03/22 11:04:20;;;;;;;14.18;3.88;;;;;;;;;;4981822;28;20474;-89
2021/03/22 11:07:13;;;;;;;14.63;3.63;;;;;;;;;;4989175;28;20026;-90
2021/03/22 11:09:59;;;;;;;14.38;3.47;;;;;;;;;;4975604;28;20022;-87
2021/03/22 11:12:45;;;;;;;13.75;4.03;;;;;;;;;;4993498;28;20030;-89
2021/03/22 11:15:35;;;;;;;11.40;3.10;;;;;;;;;;4996317;28;20036;-91
2021/03/22 11:18:21;;;;;;;12.98;5.20;;;;;;;;;;4967898;28;20015;-90
2021/03/22 11:21:09;;;;;;;13.57;4.10;;;;;;;;;;4982600;28;20069;-90
2021/03/22 11:23:56;;;;;;;17.05;3.83;;;;;;;;;;4981110;28;20029;-87
2021/03/22 11:26:54;;;;;;;15.68;3.30;;;;;;;;;;4977666;28;20069;-87
2021/03/22 11:30:01;;;;;;;11.20;3.08;;;;;;;;;;4973367;28;20030;-88
2021/03/22 11:32:47;;;;;;;11.50;2.95;;;;;;;;;;4993112;28;20065;-90
2021/03/22 11:35:32;;;;;;;11.35;3.22;;;;;;;;;;4976716;28;20033;-89
2021/03/22 11:38:23;;;;;;;10.10;3.20;;;;;;;;;;4975074;28;20034;-87
2021/03/22 11:41:24;;;;;;;8.07;2.30;;;;;;;;;;4973914;28;20061;-85
2021/03/22 11:44:15;;;;;;;15.68;4.15;;;;;;;;;;4979938;28;20042;-89
2021/03/22 11:47:19;;;;;;;10.40;2.85;;;;;;;;;;4999219;28;20551;-88
2021/03/22 11:50:24;;;;;;;16.17;4.60;;;;;;;;;;5006968;28;20034;-87
2021/03/22 11:53:12;;;;;;;13.90;3.80;;;;;;;;;;4987563;28;20018;-89
2021/03/22 11:56:30;;;;;;;22.55;11.95;;;;;;;;;;4981742;28;20018;-88
2021/03/22 11:59:19;;;;;;;21.70;5.68;;;;;;;;;;4983088;28;20094;-89
2021/03/22 12:02:11;;;;;;;17.20;5.18;;;;;;;;;;5008407;28;20030;-87
2021/03/22 12:05:02;;;;;;;16.63;4.90;;;;;;;;;;5000073;28;20106;-87
2021/03/22 12:07:48;;;;;;;13.38;4.70;;;;;;;;;;4996063;28;20061;-89
2021/03/22 12:10:33;;;;;;;16.80;4.55;;;;;;;;;;5006202;28;20045;-87
2021/03/22 12:13:18;;;;;;;17.10;4.72;;;;;;;;;;5004431;28;20026;-92
2021/03/22 12:16:04;;;;;;;10.80;4.05;;;;;;;;;;5003799;28;20094;-87
2021/03/22 12:18:50;;;;;;;20.15;4.35;;;;;;;;;;4991920;28;20050;-91
2021/03/22 12:21:36;;;;;;;15.30;3.85;;;;;;;;;;4989412;28;20049;-89
2021/03/22 12:24:22;;;;;;;11.30;3.45;;;;;;;;;;5004863;28;20508;-88
2021/03/22 12:27:15;;;;;;;14.27;3.53;;;;;;;;;;4990387;28;20026;-88
2021/03/22 12:30:00;;;;;;;12.95;3.85;;;;;;;;;;4980958;28;20451;-93
2021/03/22 12:32:46;;;;;;;10.25;3.42;;;;;;;;;;5019299;28;20129;-93
2021/03/22 12:35:45;;;;;;;7.97;3.17;;;;;;;;;;4988342;28;20065;-90
2021/03/22 12:38:31;;;;;;;15.85;3.95;;;;;;;;;;4997951;28;20077;-90
2021/03/22 12:41:46;;;;;;;11.60;3.10;;;;;;;;;;5009723;28;20560;-92
2021/03/22 12:48:16;;;;;;;7.93;2.50;;;;;;;;;;4940160;28;20583;-81
2021/03/22 12:51:03;;;;;;;9.55;3.10;;;;;;;;;;4967586;28;20019;-91
2021/03/22 12:53:49;;;;;;;8.18;3.35;;;;;;;;;;4973648;28;20014;-91
2021/03/22 12:56:34;;;;;;;15.15;3.05;;;;;;;;;;4980883;28;20049;-89
2021/03/22 12:59:28;;;;;;;8.35;3.13;;;;;;;;;;4974359;28;20026;-89
2021/03/22 13:02:14;;;;;;;8.88;2.90;;;;;;;;;;4977386;28;20011;-90
2021/03/22 13:04:59;;;;;;;6.85;2.45;;;;;;;;;;4955281;28;20054;-90
2021/03/22 13:07:45;;;;;;;12.25;4.10;;;;;;;;;;4985755;28;20030;-90
2021/03/22 13:10:37;;;;;;;14.45;3.42;;;;;;;;;;4959802;28;20042;-91
2021/03/22 13:13:26;;;;;;;9.68;3.67;;;;;;;;;;4941348;28;20106;-91
2021/03/22 13:16:52;;;;;;;7.88;3.05;;;;;;;;;;4979148;28;20031;-93
2021/03/22 13:19:43;;;;;;;11.57;4.00;;;;;;;;;;4909332;29;20493;-92
2021/03/22 13:22:29;;;;;;;13.25;4.47;;;;;;;;;;4894162;29;20021;-88
2021/03/22 13:25:15;;;;;;;11.73;4.05;;;;;;;;;;4952304;28;20030;-90
2021/03/22 13:28:01;;;;;;;11.50;3.30;;;;;;;;;;4972403;28;20037;-89
2021/03/22 13:30:46;;;;;;;11.43;3.10;;;;;;;;;;4968820;28;20034;-93
2021/03/22 13:33:34;;;;;;;10.82;3.75;;;;;;;;;;4946205;28;20105;-91
2021/03/22 13:36:41;;;;;;;12.77;3.22;;;;;;;;;;4965184;28;20331;-92
2021/03/22 13:39:27;;;;;;;12.38;3.75;;;;;;;;;;4974343;28;20030;-90
2021/03/22 13:42:32;;;;;;;11.85;4.10;;;;;;;;;;4955477;28;20035;-93
2021/03/22 13:45:33;;;;;;;15.15;4.55;;;;;;;;;;4955982;28;20106;-89
2021/03/22 13:48:19;;;;;;;10.10;3.63;;;;;;;;;;4959085;28;20023;-89
2021/03/22 13:51:04;;;;;;;13.27;4.40;;;;;;;;;;4961205;28;20098;-86
2021/03/22 13:53:50;;;;;;;12.95;5.43;;;;;;;;;;4963234;28;20488;-87
2021/03/22 13:56:39;;;;;;;14.85;4.32;;;;;;;;;;4955411;28;20101;-87
2021/03/22 13:59:26;;;;;;;9.57;4.25;;;;;;;;;;4959542;28;20126;-87
2021/03/22 14:02:12;;;;;;;11.82;4.10;;;;;;;;;;4957033;28;20113;-87
2021/03/22 14:04:59;;;;;;;18.50;5.28;;;;;;;;;;4966623;28;20019;-87
2021/03/22 14:07:44;;;;;;;12.80;4.38;;;;;;;;;;4957055;28;20114;-88
2021/03/22 14:10:30;;;;;;;11.65;5.10;;;;;;;;;;4956184;28;20038;-81
2021/03/22 14:13:15;;;;;;;13.80;5.13;;;;;;;;;;4942278;28;20027;-80
2021/03/22 14:16:01;;;;;;;12.23;4.80;;;;;;;;;;4942173;28;20055;-80
2021/03/22 14:18:47;;;;;;;15.00;4.43;;;;;;;;;;4953307;28;20034;-78
2021/03/22 14:21:32;;;;;;;18.55;9.82;;;;;;;;;;4951366;28;20026;-80
2021/03/22 14:24:18;;;;;;;19.77;9.35;;;;;;;;;;4963466;28;20030;-90
2021/03/22 14:27:03;;;;;;;12.10;4.97;;;;;;;;;;4960048;28;20049;-90
2021/03/22 14:29:49;;;;;;;11.02;4.93;;;;;;;;;;4967831;28;20413;-85
2021/03/22 14:32:34;;;;;;;11.52;4.50;;;;;;;;;;4943072;28;20023;-87
2021/03/22 14:35:20;;;;;;;9.38;4.43;;;;;;;;;;4971478;28;20027;-88
2021/03/22 14:38:06;;;;;;;12.68;4.53;;;;;;;;;;4958288;28;20061;-88
2021/03/22 14:40:51;;;;;;;9.98;4.75;;;;;;;;;;4963097;28;20019;-88
2021/03/22 14:43:36;;;;;;;13.27;4.93;;;;;;;;;;4973186;28;20465;-87
2021/03/22 14:46:22;;;;;;;11.77;4.60;;;;;;;;;;4993090;28;20552;-88
2021/03/22 14:49:07;;;;;;;11.40;4.68;;;;;;;;;;5003892;28;20104;-88
2021/03/22 14:51:53;;;;;;;7.70;3.70;;;;;;;;;;4987842;28;20470;-86
2021/03/22 14:54:38;;;;;;;15.43;4.45;;;;;;;;;;4998132;28;20503;-87
2021/03/22 14:57:23;;;;;;;14.05;5.10;;;;;;;;;;4965199;28;20113;-90
2021/03/22 15:00:10;;;;;;;11.10;4.72;;;;;;;;;;4979176;28;20037;-90
2021/03/22 15:02:56;;;;;;;12.68;4.15;;;;;;;;;;4978965;28;20033;-87
2021/03/22 15:05:42;;;;;;;13.20;4.78;;;;;;;;;;4977807;28;20020;-88
2021/03/22 15:08:27;;;;;;;12.32;4.82;;;;;;;;;;4981268;28;20026;-88
2021/03/22 15:11:13;;;;;;;13.52;4.80;;;;;;;;;;4987495;28;20604;-88
2021/03/22 15:14:03;;;;;;;14.68;5.25;;;;;;;;;;4978495;28;20052;-89
2021/03/22 15:16:48;;;;;;;12.30;4.93;;;;;;;;;;4978353;28;20384;-88
2021/03/22 15:19:34;;;;;;;13.68;4.50;;;;;;;;;;4992720;28;20046;-87
2021/03/22 15:22:19;;;;;;;20.92;10.23;;;;;;;;;;4984325;28;20721;-89
2021/03/22 15:25:08;;;;;;;15.68;4.97;;;;;;;;;;4992559;28;20026;-88
2021/03/22 15:27:54;;;;;;;12.60;4.50;;;;;;;;;;4964498;28;20018;-89
2021/03/22 15:30:40;;;;;;;8.63;4.82;;;;;;;;;;4992719;28;20480;-91
2021/03/22 15:33:30;;;;;;;13.00;3.92;;;;;;;;;;4981251;28;20061;-86
2021/03/22 15:36:20;;;;;;;13.07;4.72;;;;;;;;;;4965759;28;20052;-87
2021/03/22 15:39:05;;;;;;;15.27;5.60;;;;;;;;;;4970012;28;20023;-85
2021/03/22 15:41:51;;;;;;;16.00;4.75;;;;;;;;;;4984485;28;20030;-85
2021/03/22 15:44:36;;;;;;;10.13;4.32;;;;;;;;;;4972591;28;20118;-87
2021/03/22 15:47:22;;;;;;;9.85;4.18;;;;;;;;;;4994000;28;20478;-87
2021/03/22 15:50:07;;;;;;;9.43;3.85;;;;;;;;;;4991686;28;20105;-89
2021/03/22 15:52:52;;;;;;;12.27;4.15;;;;;;;;;;4979235;28;20029;-89
2021/03/22 15:55:38;;;;;;;14.75;4.32;;;;;;;;;;4982418;28;20026;-88
2021/03/22 15:58:23;;;;;;;15.88;5.40;;;;;;;;;;4993487;28;20656;-88
2021/03/22 16:01:09;;;;;;;10.73;4.82;;;;;;;;;;4980004;28;20026;-87
2021/03/22 16:03:54;;;;;;;12.02;4.75;;;;;;;;;;5008319;28;20369;-89
2021/03/22 16:06:39;;;;;;;15.15;6.28;;;;;;;;;;4996856;28;20484;-88
2021/03/22 16:09:26;;;;;;;10.25;4.57;;;;;;;;;;4993280;28;20072;-89
2021/03/22 16:12:11;;;;;;;11.60;4.80;;;;;;;;;;4973481;28;20033;-88
2021/03/22 16:14:56;;;;;;;11.35;5.43;;;;;;;;;;5002511;28;20113;-90
2021/03/22 16:17:42;;;;;;;11.00;4.60;;;;;;;;;;5013157;28;20030;-89
2021/03/22 16:20:29;;;;;;;11.25;4.65;;;;;;;;;;5010477;28;20030;-89
2021/03/22 16:23:17;;;;;;;13.32;5.07;;;;;;;;;;5014833;28;20376;-87
2021/03/22 16:26:03;;;;;;;26.25;17.42;;;;;;;;;;5003746;28;20037;-86
2021/03/22 16:28:48;;;;;;;12.90;6.03;;;;;;;;;;5005390;28;20018;-87
2021/03/22 16:31:33;;;;;;;12.02;5.10;;;;;;;;;;4994871;28;20054;-88
2021/03/22 16:34:18;;;;;;;8.02;4.57;;;;;;;;;;4987326;28;20030;-88
2021/03/22 16:37:04;;;;;;;15.15;6.28;;;;;;;;;;5004356;28;20072;-87
2021/03/22 16:39:51;;;;;;;11.77;5.03;;;;;;;;;;4989529;28;20030;-90
2021/03/22 16:42:36;;;;;;;9.95;4.50;;;;;;;;;;5007188;28;20053;-92
2021/03/22 16:45:22;;;;;;;11.50;4.85;;;;;;;;;;4993369;28;20100;-88
2021/03/22 16:48:08;;;;;;;12.77;5.30;;;;;;;;;;5010551;28;20129;-88
2021/03/22 16:50:54;;;;;;;6.78;4.32;;;;;;;;;;4992688;28;20058;-88
2021/03/22 16:53:39;;;;;;;10.45;4.55;;;;;;;;;;5006906;28;20079;-88
2021/03/22 16:56:24;;;;;;;9.73;5.20;;;;;;;;;;4994293;28;20177;-90
2021/03/22 16:59:12;;;;;;;9.98;4.18;;;;;;;;;;5003500;28;20704;-89
2021/03/22 17:01:57;;;;;;;10.02;5.07;;;;;;;;;;4970254;28;20109;-87
2021/03/22 17:04:42;;;;;;;14.77;8.10;;;;;;;;;;4998422;28;20054;-88
2021/03/22 17:07:27;;;;;;;18.38;8.75;;;;;;;;;;4990312;28;20026;-88
2021/03/22 17:10:13;;;;;;;29.80;17.30;;;;;;;;;;5003521;28;20384;-86
2021/03/22 17:12:58;;;;;;;21.67;10.60;;;;;;;;;;4983342;28;20030;-87
2021/03/22 17:15:43;;;;;;;25.48;14.73;;;;;;;;;;4988658;28;20017;-87